Bookmark and Share
Track history (hours):
 

Rickmers New Orleans

Last reported at 2014-Apr-12 01:09 UTC. Time now 2014-Apr-19 05:12 UTC.
Position N 31°21' E 032°20'.

Length 192.9 m; beam 27.8 m; draft 11.2 m.

Type: Ship. MMSI: 538001922.

NotesDate/timePositionNaut miles runAvg speedWind from/ knotsBaromVisibWave heightAir tempDewpointWater temp
2014-Apr-12 01:09N 31°21' E 032°20'3 1.7
2014-Apr-11 23:12N 31°25' E 032°20'2 3.9
2014-Apr-11 22:33N 31°27' E 032°18'1010.4
2014-Apr-11 21:33N 31°34' E 032°09'  
2014-Apr-08 06:15N 41°05' E 011°46'13013.4
2014-Apr-07 20:33N 42°40' E 009°46'1313.2
2014-Apr-07 19:33N 42°52' E 009°41'2713.2
2014-Apr-07 17:33N 43°17' E 009°29'1413.5
2014-Apr-07 16:34N 43°30' E 009°22'1313.4
2014-Apr-07 15:34N 43°43' E 009°16'1313.4
2014-Apr-07 14:34N 43°55' E 009°10'1413.5
2014-Apr-07 13:33N 44°08' E 009°03'1313.3
2014-Apr-07 12:33N 44°21' E 008°58'5 4.5
2014-Apr-07 11:28N 44°24' E 008°53'0 0.0
2014-Apr-07 10:28N 44°24' E 008°53'0 0.0
2014-Apr-07 09:31N 44°24' E 008°53'0 0.0
2014-Apr-07 08:22N 44°24' E 008°53'0 0.0
2014-Apr-07 07:31N 44°24' E 008°53'0 0.0
2014-Apr-07 06:22N 44°24' E 008°53'0 0.0
2014-Apr-07 05:28N 44°24' E 008°53'0 0.0
2014-Apr-07 04:28N 44°24' E 008°53'0 0.0
2014-Apr-07 03:31N 44°24' E 008°53'0 0.0
2014-Apr-07 02:31N 44°24' E 008°53'0 0.0
2014-Apr-07 01:31N 44°24' E 008°53'0 0.0
2014-Apr-07 00:31N 44°24' E 008°53'0 0.0
2014-Apr-06 23:28N 44°24' E 008°53'0 0.0
2014-Apr-06 22:28N 44°24' E 008°53'0 0.0
2014-Apr-06 21:28N 44°24' E 008°53'0 0.0
2014-Apr-06 20:28N 44°24' E 008°53'0 0.0
2014-Apr-06 19:25N 44°24' E 008°53'0 0.0
2014-Apr-06 18:22N 44°24' E 008°53'0 0.0
2014-Apr-06 17:22N 44°24' E 008°53'0 0.0
2014-Apr-06 16:28N 44°24' E 008°53'0 0.0
2014-Apr-06 15:28N 44°24' E 008°53'0 0.0
2014-Apr-06 14:28N 44°24' E 008°53'0 0.0
2014-Apr-06 13:28N 44°24' E 008°53'0 0.0
2014-Apr-06 12:28N 44°24' E 008°53'0 0.0
2014-Apr-06 11:28N 44°24' E 008°53'0 0.0
2014-Apr-06 10:28N 44°24' E 008°53'0 0.0
2014-Apr-06 09:28N 44°24' E 008°53'0 0.0
2014-Apr-06 08:22N 44°24' E 008°53'0 0.0
2014-Apr-06 07:31N 44°24' E 008°53'0 0.1
2014-Apr-06 06:33N 44°24' E 008°53'6 6.0
2014-Apr-06 05:33N 44°19' E 008°58'1212.1
2014-Apr-06 04:33N 44°11' E 008°45'1413.8
2014-Apr-06 03:33N 44°02' E 008°32'1413.9
2014-Apr-06 02:32N 43°52' E 008°17'1413.9
2014-Apr-06 01:33N 43°43' E 008°03'1714.0
2014-Apr-06 00:21N 43°32' E 007°45'1114.3
2014-Apr-05 23:33N 43°24' E 007°34'8814.6
2014-Apr-05 17:32N 42°23' E 006°09'1514.9
2014-Apr-05 16:33N 42°12' E 005°55'1414.7
2014-Apr-05 15:33N 42°02' E 005°41'2913.4
2014-Apr-05 13:23N 41°42' E 005°12'1012.0
2014-Apr-05 12:33N 41°36' E 005°01'1111.3
2014-Apr-05 11:34N 41°30' E 004°49'1111.1
2014-Apr-05 10:33N 41°23' E 004°37'3110.5
2014-Apr-05 07:33N 41°03' E 004°04'1211.2
2014-Apr-05 06:26N 40°55' E 003°52'1212.1
2014-Apr-05 05:26N 40°47' E 003°40'1212.3
2014-Apr-05 04:28N 40°39' E 003°29'1112.6
2014-Apr-05 03:33N 40°31' E 003°18'1312.8
2014-Apr-05 02:34N 40°22' E 003°05'1413.5
2014-Apr-05 01:33N 40°13' E 002°52'1313.5
2014-Apr-05 00:34N 40°04' E 002°39'1413.7
2014-Apr-04 23:33N 39°55' E 002°26'1413.6
2014-Apr-04 22:33N 39°46' E 002°13'1413.7
2014-Apr-04 21:33N 39°37' E 001°59'1413.6
2014-Apr-04 20:33N 39°27' E 001°46'1513.7
2014-Apr-04 19:28N 39°17' E 001°32'12913.0
2014-Apr-04 09:33N 37°41' W 000°18'1313.0
2014-Apr-04 08:34N 37°32' W 000°28'24113.4
2014-Apr-03 14:33N 36°00' W 005°07'1717.0
2014-Apr-03 13:33N 35°57' W 005°27'  

Dump ship's entire track history

sailing weather and tide predictions

Rickmers New Orleans — V7FF2 — position and weather